TMG6012 WAAA-WAMG
Flight info
| Callsign | TMG6012 |
|---|---|
| Flight time | 1h 25m |
| Altitude | 39000 |
| Route | NIVEK W51 GTL |
| Aircraft | B738/M-SDFGHIRWY/EB2 |
Departure
| Time | 2026-04-24 01:12 |
|---|---|
| Airport | Sultan Hasanuddin International Airport (WAAA) |
Arrival
| Time | 2026-04-24 02:38 |
|---|---|
| Airport | Jalaluddin Airport (WAMG) |
| Time | Latitude | Longitude | Altitude | Speed | Heading |
|---|---|---|---|---|---|
| 2026-04-24 00:29 | -5.07815 | 119.54712 | 38 ft | 0 kts | 300° |
| 2026-04-24 01:01 | -5.07817 | 119.54715 | 40 ft | 2 kts | 300° |
| 2026-04-24 01:01 | -5.07826 | 119.54732 | 38 ft | 3 kts | 300° |
| 2026-04-24 01:01 | -5.07836 | 119.54749 | 37 ft | 3 kts | 299° |
| 2026-04-24 01:01 | -5.07846 | 119.54767 | 37 ft | 3 kts | 291° |
| 2026-04-24 01:02 | -5.07851 | 119.54785 | 38 ft | 3 kts | 261° |
| 2026-04-24 01:02 | -5.07846 | 119.54797 | 37 ft | 1 kts | 211° |
| 2026-04-24 01:02 | -5.07834 | 119.54804 | 36 ft | 3 kts | 210° |
| 2026-04-24 01:02 | -5.07824 | 119.54810 | 38 ft | 0 kts | 210° |
| 2026-04-24 01:06 | -5.07830 | 119.54806 | 40 ft | 3 kts | 210° |
| 2026-04-24 01:06 | -5.07863 | 119.54787 | 40 ft | 7 kts | 210° |
| 2026-04-24 01:06 | -5.07912 | 119.54760 | 40 ft | 8 kts | 208° |
| 2026-04-24 01:06 | -5.07960 | 119.54733 | 40 ft | 8 kts | 205° |
| 2026-04-24 01:07 | -5.08008 | 119.54746 | 38 ft | 8 kts | 128° |
| 2026-04-24 01:07 | -5.08035 | 119.54791 | 39 ft | 7 kts | 120° |
| 2026-04-24 01:07 | -5.08061 | 119.54835 | 38 ft | 7 kts | 126° |
| 2026-04-24 01:07 | -5.08108 | 119.54845 | 40 ft | 7 kts | 201° |
| 2026-04-24 01:08 | -5.08151 | 119.54823 | 40 ft | 7 kts | 209° |
| 2026-04-24 01:08 | -5.08204 | 119.54793 | 40 ft | 12 kts | 209° |
| 2026-04-24 01:08 | -5.08295 | 119.54741 | 40 ft | 17 kts | 211° |
| 2026-04-24 01:08 | -5.08398 | 119.54680 | 40 ft | 17 kts | 211° |
| 2026-04-24 01:09 | -5.08499 | 119.54622 | 40 ft | 16 kts | 209° |
| 2026-04-24 01:09 | -5.08596 | 119.54566 | 41 ft | 16 kts | 211° |
| 2026-04-24 01:09 | -5.08688 | 119.54512 | 40 ft | 15 kts | 208° |
| 2026-04-24 01:09 | -5.08777 | 119.54462 | 40 ft | 14 kts | 210° |
| 2026-04-24 01:10 | -5.08863 | 119.54413 | 40 ft | 14 kts | 210° |
| 2026-04-24 01:10 | -5.08944 | 119.54366 | 41 ft | 13 kts | 210° |
| 2026-04-24 01:10 | -5.09022 | 119.54321 | 39 ft | 13 kts | 210° |
| 2026-04-24 01:10 | -5.09100 | 119.54282 | 40 ft | 12 kts | 195° |
| 2026-04-24 01:11 | -5.09173 | 119.54313 | 40 ft | 12 kts | 123° |
| 2026-04-24 01:11 | -5.09213 | 119.54384 | 41 ft | 8 kts | 115° |
| 2026-04-24 01:11 | -5.09203 | 119.54416 | 38 ft | 0 kts | 32° |
| 2026-04-24 01:11 | -5.09197 | 119.54420 | 40 ft | 6 kts | 32° |
| 2026-04-24 01:12 | -5.09010 | 119.54528 | 43 ft | 65 kts | 30° |
| 2026-04-24 01:12 | -5.08659 | 119.54729 | 41 ft | 109 kts | 29° |
| 2026-04-24 01:12 | -5.07824 | 119.55214 | 45 ft | 165 kts | 30° |
| 2026-04-24 01:12 | -5.06437 | 119.56038 | 924 ft | 169 kts | 30° |
| 2026-04-24 01:13 | -5.05733 | 119.56383 | 1378 ft | 174 kts | 15° |
| 2026-04-24 01:13 | -5.04033 | 119.56225 | 2008 ft | 197 kts | 354° |
| 2026-04-24 01:13 | -5.03086 | 119.56119 | 2328 ft | 207 kts | 356° |
| 2026-04-24 01:13 | -5.01640 | 119.55949 | 2992 ft | 209 kts | 357° |
| 2026-04-24 01:14 | -5.00176 | 119.55890 | 3640 ft | 209 kts | 2° |
| 2026-04-24 01:14 | -4.98720 | 119.55854 | 4184 ft | 221 kts | 360° |
| 2026-04-24 01:14 | -4.97070 | 119.55817 | 4312 ft | 251 kts | 2° |
| 2026-04-24 01:14 | -4.95242 | 119.55793 | 4666 ft | 271 kts | 356° |
| 2026-04-24 01:15 | -4.93354 | 119.55479 | 5283 ft | 278 kts | 350° |
| 2026-04-24 01:15 | -4.91446 | 119.55068 | 6016 ft | 281 kts | 350° |
| 2026-04-24 01:15 | -4.89527 | 119.54662 | 6771 ft | 283 kts | 350° |
| 2026-04-24 01:15 | -4.87586 | 119.54269 | 7410 ft | 287 kts | 351° |
| 2026-04-24 01:16 | -4.85616 | 119.53884 | 8086 ft | 290 kts | 351° |
| 2026-04-24 01:16 | -4.83666 | 119.53449 | 8754 ft | 294 kts | 341° |
| 2026-04-24 01:16 | -4.81942 | 119.52327 | 9378 ft | 302 kts | 313° |
| 2026-04-24 01:16 | -4.80864 | 119.50523 | 10032 ft | 305 kts | 292° |
| 2026-04-24 01:17 | -4.80084 | 119.48499 | 10389 ft | 320 kts | 291° |
| 2026-04-24 01:17 | -4.79305 | 119.46336 | 10611 ft | 337 kts | 290° |
| 2026-04-24 01:17 | -4.78513 | 119.44104 | 11105 ft | 342 kts | 290° |
| 2026-04-24 01:17 | -4.77710 | 119.41850 | 11722 ft | 344 kts | 290° |
| 2026-04-24 01:18 | -4.76894 | 119.39581 | 12364 ft | 346 kts | 290° |
| 2026-04-24 01:18 | -4.76069 | 119.37305 | 12977 ft | 349 kts | 290° |
| 2026-04-24 01:18 | -4.75231 | 119.35005 | 13603 ft | 352 kts | 290° |
| 2026-04-24 01:18 | -4.74379 | 119.32678 | 14170 ft | 356 kts | 290° |
| 2026-04-24 01:19 | -4.73522 | 119.30340 | 14707 ft | 360 kts | 290° |
| 2026-04-24 01:19 | -4.72664 | 119.28007 | 15283 ft | 362 kts | 290° |
| 2026-04-24 01:19 | -4.71789 | 119.25625 | 15897 ft | 364 kts | 290° |
| 2026-04-24 01:19 | -4.70910 | 119.23236 | 16474 ft | 367 kts | 290° |
| 2026-04-24 01:20 | -4.70023 | 119.20824 | 17040 ft | 370 kts | 290° |
| 2026-04-24 01:20 | -4.69127 | 119.18389 | 17589 ft | 374 kts | 290° |
| 2026-04-24 01:20 | -4.68222 | 119.15930 | 18138 ft | 377 kts | 290° |
| 2026-04-24 01:20 | -4.67310 | 119.13453 | 18614 ft | 380 kts | 290° |
| 2026-04-24 01:21 | -4.66394 | 119.10962 | 19081 ft | 383 kts | 290° |
| 2026-04-24 01:21 | -4.65477 | 119.08472 | 19549 ft | 386 kts | 290° |
| 2026-04-24 01:21 | -4.64545 | 119.05940 | 20008 ft | 389 kts | 290° |
| 2026-04-24 01:21 | -4.63603 | 119.03383 | 20456 ft | 392 kts | 290° |
| 2026-04-24 01:22 | -4.62657 | 119.00814 | 20925 ft | 395 kts | 290° |
| 2026-04-24 01:22 | -4.61703 | 118.98221 | 21373 ft | 398 kts | 291° |
| 2026-04-24 01:22 | -4.60742 | 118.95614 | 21811 ft | 401 kts | 291° |
| 2026-04-24 01:22 | -4.59768 | 118.92970 | 22242 ft | 404 kts | 291° |
| 2026-04-24 01:23 | -4.58793 | 118.90322 | 22659 ft | 407 kts | 291° |
| 2026-04-24 01:23 | -4.57804 | 118.87638 | 22925 ft | 412 kts | 291° |
| 2026-04-24 01:23 | -4.56809 | 118.84936 | 22900 ft | 412 kts | 291° |
| 2026-04-24 01:23 | -4.55833 | 118.82286 | 22906 ft | 409 kts | 291° |
| 2026-04-24 01:24 | -4.54848 | 118.79615 | 22914 ft | 409 kts | 291° |
| 2026-04-24 01:24 | -4.53747 | 118.76976 | 22900 ft | 410 kts | 302° |
| 2026-04-24 01:24 | -4.51963 | 118.74770 | 22924 ft | 407 kts | 320° |
| 2026-04-24 01:24 | -4.49619 | 118.73195 | 22931 ft | 406 kts | 333° |
| 2026-04-24 01:25 | -4.47118 | 118.71860 | 22918 ft | 405 kts | 334° |
| 2026-04-24 01:25 | -4.44644 | 118.70582 | 22914 ft | 405 kts | 334° |
| 2026-04-24 01:25 | -4.42131 | 118.69284 | 22915 ft | 408 kts | 334° |
| 2026-04-24 01:25 | -4.39615 | 118.67972 | 22915 ft | 407 kts | 334° |
| 2026-04-24 01:26 | -4.37116 | 118.66653 | 22900 ft | 404 kts | 333° |
| 2026-04-24 01:26 | -4.34616 | 118.65324 | 23007 ft | 410 kts | 333° |
| 2026-04-24 01:26 | -4.32089 | 118.63975 | 23434 ft | 412 kts | 333° |
| 2026-04-24 01:26 | -4.29563 | 118.62625 | 23880 ft | 411 kts | 333° |
| 2026-04-24 01:27 | -4.27038 | 118.61274 | 24269 ft | 413 kts | 333° |
| 2026-04-24 01:27 | -4.24498 | 118.59917 | 24608 ft | 415 kts | 333° |
| 2026-04-24 01:27 | -4.21941 | 118.58550 | 24938 ft | 418 kts | 333° |
| 2026-04-24 01:27 | -4.19367 | 118.57175 | 25275 ft | 420 kts | 333° |
| 2026-04-24 01:28 | -4.16784 | 118.55796 | 25620 ft | 422 kts | 333° |
| 2026-04-24 01:28 | -4.14189 | 118.54411 | 25955 ft | 424 kts | 334° |
| 2026-04-24 01:28 | -4.11573 | 118.53016 | 26294 ft | 426 kts | 334° |
| 2026-04-24 01:28 | -4.08956 | 118.51620 | 26690 ft | 426 kts | 334° |
| 2026-04-24 01:29 | -4.06346 | 118.50226 | 27158 ft | 424 kts | 334° |
| 2026-04-24 01:29 | -4.03748 | 118.48839 | 27634 ft | 422 kts | 334° |
| 2026-04-24 01:29 | -4.01151 | 118.47453 | 28069 ft | 422 kts | 334° |
| 2026-04-24 01:29 | -3.98562 | 118.46071 | 28478 ft | 422 kts | 334° |
| 2026-04-24 01:30 | -3.96003 | 118.44706 | 28905 ft | 421 kts | 334° |
| 2026-04-24 01:30 | -3.93422 | 118.43329 | 29366 ft | 420 kts | 334° |
| 2026-04-24 01:30 | -3.90766 | 118.42132 | 29772 ft | 416 kts | 347° |
| 2026-04-24 01:30 | -3.87926 | 118.41755 | 30128 ft | 410 kts | 5° |
| 2026-04-24 01:31 | -3.85126 | 118.42175 | 30494 ft | 406 kts | 15° |
| 2026-04-24 01:31 | -3.82381 | 118.42830 | 30846 ft | 405 kts | 16° |
| 2026-04-24 01:31 | -3.79682 | 118.43520 | 31176 ft | 404 kts | 17° |
| 2026-04-24 01:31 | -3.76953 | 118.44226 | 31520 ft | 404 kts | 17° |
| 2026-04-24 01:32 | -3.74237 | 118.44920 | 31887 ft | 402 kts | 17° |
| 2026-04-24 01:32 | -3.71519 | 118.45604 | 32247 ft | 401 kts | 17° |
| 2026-04-24 01:32 | -3.68814 | 118.46275 | 32578 ft | 401 kts | 17° |
| 2026-04-24 01:32 | -3.66105 | 118.46940 | 32885 ft | 401 kts | 17° |
| 2026-04-24 01:33 | -3.63397 | 118.47601 | 33222 ft | 400 kts | 17° |
| 2026-04-24 01:33 | -3.60698 | 118.48258 | 33551 ft | 399 kts | 17° |
| 2026-04-24 01:33 | -3.57998 | 118.48914 | 33849 ft | 398 kts | 17° |
| 2026-04-24 01:33 | -3.55306 | 118.49568 | 34114 ft | 398 kts | 17° |
| 2026-04-24 01:34 | -3.52612 | 118.50223 | 34377 ft | 397 kts | 17° |
| 2026-04-24 01:34 | -3.49968 | 118.50865 | 34623 ft | 396 kts | 17° |
| 2026-04-24 01:34 | -3.47286 | 118.51516 | 34867 ft | 396 kts | 17° |
| 2026-04-24 01:34 | -3.44601 | 118.52169 | 35103 ft | 395 kts | 17° |
| 2026-04-24 01:35 | -3.41931 | 118.52817 | 35319 ft | 395 kts | 17° |
| 2026-04-24 01:35 | -3.39256 | 118.53467 | 35551 ft | 394 kts | 17° |
| 2026-04-24 01:35 | -3.36590 | 118.54115 | 35771 ft | 394 kts | 17° |
| 2026-04-24 01:35 | -3.33927 | 118.54762 | 35990 ft | 394 kts | 17° |
| 2026-04-24 01:36 | -3.31267 | 118.55408 | 36197 ft | 393 kts | 17° |
| 2026-04-24 01:36 | -3.28605 | 118.56055 | 36402 ft | 393 kts | 17° |
| 2026-04-24 01:36 | -3.25952 | 118.56699 | 36593 ft | 392 kts | 17° |
| 2026-04-24 01:36 | -3.23330 | 118.57336 | 36789 ft | 392 kts | 17° |
| 2026-04-24 01:37 | -3.20678 | 118.57980 | 36923 ft | 393 kts | 17° |
| 2026-04-24 01:37 | -3.15321 | 118.59283 | 36930 ft | 400 kts | 17° |
| 2026-04-24 01:38 | -3.09863 | 118.60609 | 36937 ft | 407 kts | 17° |
| 2026-04-24 01:38 | -3.04306 | 118.61959 | 36938 ft | 414 kts | 17° |
| 2026-04-24 01:39 | -2.98655 | 118.63331 | 36938 ft | 422 kts | 17° |
| 2026-04-24 01:39 | -2.92899 | 118.64728 | 36939 ft | 429 kts | 17° |
| 2026-04-24 01:40 | -2.87082 | 118.66140 | 36942 ft | 436 kts | 17° |
| 2026-04-24 01:40 | -2.81139 | 118.67582 | 36940 ft | 442 kts | 16° |
| 2026-04-24 01:41 | -2.75111 | 118.69044 | 36942 ft | 449 kts | 16° |
| 2026-04-24 01:41 | -2.68998 | 118.70528 | 36940 ft | 454 kts | 16° |
| 2026-04-24 01:41 | -2.65997 | 118.71406 | 36916 ft | 454 kts | 27° |
| 2026-04-24 01:42 | -2.63276 | 118.72968 | 36961 ft | 450 kts | 36° |
| 2026-04-24 01:42 | -2.58083 | 118.76498 | 36943 ft | 453 kts | 37° |
| 2026-04-24 01:43 | -2.52857 | 118.80074 | 36931 ft | 456 kts | 36° |
| 2026-04-24 01:43 | -2.47584 | 118.83624 | 36931 ft | 456 kts | 36° |
| 2026-04-24 01:44 | -2.42309 | 118.87143 | 36927 ft | 455 kts | 36° |
| 2026-04-24 01:44 | -2.37045 | 118.90645 | 36928 ft | 454 kts | 36° |
| 2026-04-24 01:45 | -2.31831 | 118.94115 | 36928 ft | 452 kts | 36° |
| 2026-04-24 01:45 | -2.26621 | 118.97583 | 36933 ft | 450 kts | 36° |
| 2026-04-24 01:46 | -2.21421 | 119.01046 | 36933 ft | 448 kts | 36° |
| 2026-04-24 01:46 | -2.16242 | 119.04494 | 36932 ft | 447 kts | 36° |
| 2026-04-24 01:47 | -2.11070 | 119.07937 | 36930 ft | 446 kts | 36° |
| 2026-04-24 01:47 | -2.05912 | 119.11371 | 36935 ft | 446 kts | 36° |
| 2026-04-24 01:48 | -2.00760 | 119.14800 | 36934 ft | 446 kts | 36° |
| 2026-04-24 01:48 | -1.95598 | 119.18236 | 36936 ft | 447 kts | 36° |
| 2026-04-24 01:49 | -1.90434 | 119.21673 | 36939 ft | 448 kts | 36° |
| 2026-04-24 01:49 | -1.85231 | 119.25135 | 36936 ft | 449 kts | 36° |
| 2026-04-24 01:50 | -1.80005 | 119.28613 | 36940 ft | 451 kts | 36° |
| 2026-04-24 01:50 | -1.74800 | 119.32076 | 36945 ft | 452 kts | 36° |
| 2026-04-24 01:51 | -1.69549 | 119.35569 | 36946 ft | 452 kts | 36° |
| 2026-04-24 01:51 | -1.64333 | 119.39039 | 36947 ft | 453 kts | 36° |
| 2026-04-24 01:52 | -1.59067 | 119.42542 | 36946 ft | 453 kts | 36° |
| 2026-04-24 01:52 | -1.53820 | 119.46032 | 36952 ft | 453 kts | 36° |
| 2026-04-24 01:53 | -1.48595 | 119.49508 | 36954 ft | 453 kts | 36° |
| 2026-04-24 01:53 | -1.43367 | 119.52986 | 36957 ft | 452 kts | 36° |
| 2026-04-24 01:54 | -1.38141 | 119.56461 | 36959 ft | 452 kts | 36° |
| 2026-04-24 01:54 | -1.32902 | 119.59946 | 36964 ft | 451 kts | 35° |
| 2026-04-24 01:55 | -1.27671 | 119.63424 | 36970 ft | 451 kts | 35° |
| 2026-04-24 01:55 | -1.22449 | 119.66896 | 36966 ft | 450 kts | 35° |
| 2026-04-24 01:56 | -1.17234 | 119.70365 | 36967 ft | 450 kts | 35° |
| 2026-04-24 01:56 | -1.12052 | 119.73811 | 36973 ft | 450 kts | 35° |
| 2026-04-24 01:57 | -1.06833 | 119.77281 | 36965 ft | 451 kts | 35° |
| 2026-04-24 01:57 | -1.01605 | 119.80758 | 36969 ft | 452 kts | 35° |
| 2026-04-24 01:58 | -0.96371 | 119.84238 | 36975 ft | 453 kts | 35° |
| 2026-04-24 01:58 | -0.91083 | 119.87754 | 36960 ft | 454 kts | 36° |
| 2026-04-24 01:58 | -0.88681 | 119.89722 | 36958 ft | 451 kts | 50° |
| 2026-04-24 01:59 | -0.86887 | 119.92266 | 36980 ft | 447 kts | 63° |
| 2026-04-24 01:59 | -0.84032 | 119.97812 | 36980 ft | 448 kts | 64° |
| 2026-04-24 02:00 | -0.81260 | 120.03350 | 36976 ft | 449 kts | 64° |
| 2026-04-24 02:00 | -0.78415 | 120.08939 | 36964 ft | 450 kts | 64° |
| 2026-04-24 02:01 | -0.75559 | 120.14477 | 36964 ft | 450 kts | 64° |
| 2026-04-24 02:01 | -0.72668 | 120.20060 | 36967 ft | 450 kts | 64° |
| 2026-04-24 02:02 | -0.69803 | 120.25591 | 36964 ft | 450 kts | 64° |
| 2026-04-24 02:02 | -0.66929 | 120.31140 | 36957 ft | 450 kts | 64° |
| 2026-04-24 02:03 | -0.63096 | 120.38545 | 36951 ft | 450 kts | 64° |
| 2026-04-24 02:03 | -0.60222 | 120.44096 | 36947 ft | 450 kts | 64° |
| 2026-04-24 02:04 | -0.56876 | 120.50560 | 36941 ft | 449 kts | 64° |
| 2026-04-24 02:04 | -0.54469 | 120.55209 | 36948 ft | 449 kts | 64° |
| 2026-04-24 02:05 | -0.51604 | 120.60743 | 36947 ft | 449 kts | 64° |
| 2026-04-24 02:05 | -0.48726 | 120.66302 | 36946 ft | 449 kts | 64° |
| 2026-04-24 02:06 | -0.45874 | 120.71810 | 36945 ft | 449 kts | 64° |
| 2026-04-24 02:06 | -0.43006 | 120.77349 | 36940 ft | 449 kts | 63° |
| 2026-04-24 02:07 | -0.40119 | 120.82923 | 36944 ft | 449 kts | 64° |
| 2026-04-24 02:07 | -0.37254 | 120.88457 | 36942 ft | 450 kts | 64° |
| 2026-04-24 02:08 | -0.34383 | 120.94003 | 36940 ft | 450 kts | 64° |
| 2026-04-24 02:08 | -0.31508 | 120.99554 | 36939 ft | 450 kts | 64° |
| 2026-04-24 02:09 | -0.28638 | 121.05097 | 36939 ft | 450 kts | 64° |
| 2026-04-24 02:09 | -0.25755 | 121.10665 | 36924 ft | 450 kts | 63° |
| 2026-04-24 02:10 | -0.24324 | 121.13427 | 36639 ft | 446 kts | 63° |
| 2026-04-24 02:10 | -0.22913 | 121.16152 | 36395 ft | 440 kts | 63° |
| 2026-04-24 02:10 | -0.21510 | 121.18860 | 36144 ft | 435 kts | 63° |
| 2026-04-24 02:10 | -0.20138 | 121.21510 | 35903 ft | 432 kts | 63° |
| 2026-04-24 02:11 | -0.18753 | 121.24185 | 35667 ft | 431 kts | 63° |
| 2026-04-24 02:11 | -0.17377 | 121.26841 | 35433 ft | 429 kts | 63° |
| 2026-04-24 02:11 | -0.16023 | 121.29457 | 35204 ft | 428 kts | 63° |
| 2026-04-24 02:11 | -0.14649 | 121.32110 | 34971 ft | 427 kts | 63° |
| 2026-04-24 02:12 | -0.13286 | 121.34742 | 34744 ft | 426 kts | 63° |
| 2026-04-24 02:12 | -0.11919 | 121.37382 | 34506 ft | 424 kts | 63° |
| 2026-04-24 02:12 | -0.10587 | 121.39954 | 34177 ft | 420 kts | 63° |
| 2026-04-24 02:12 | -0.09246 | 121.42544 | 33784 ft | 417 kts | 63° |
| 2026-04-24 02:13 | -0.07919 | 121.45106 | 33357 ft | 414 kts | 63° |
| 2026-04-24 02:13 | -0.06599 | 121.47655 | 32956 ft | 411 kts | 63° |
| 2026-04-24 02:13 | -0.05290 | 121.50182 | 32561 ft | 408 kts | 63° |
| 2026-04-24 02:13 | -0.03989 | 121.52694 | 32169 ft | 406 kts | 63° |
| 2026-04-24 02:14 | -0.02690 | 121.55204 | 31785 ft | 403 kts | 63° |
| 2026-04-24 02:14 | -0.01421 | 121.57654 | 31405 ft | 401 kts | 63° |
| 2026-04-24 02:14 | -0.00144 | 121.60120 | 31031 ft | 398 kts | 63° |
| 2026-04-24 02:14 | 0.01129 | 121.62578 | 30653 ft | 396 kts | 63° |
| 2026-04-24 02:15 | 0.02392 | 121.65017 | 30264 ft | 395 kts | 63° |
| 2026-04-24 02:15 | 0.03653 | 121.67451 | 29858 ft | 393 kts | 63° |
| 2026-04-24 02:15 | 0.04909 | 121.69877 | 29439 ft | 391 kts | 63° |
| 2026-04-24 02:15 | 0.06153 | 121.72279 | 29024 ft | 388 kts | 63° |
| 2026-04-24 02:16 | 0.07389 | 121.74666 | 28625 ft | 385 kts | 63° |
| 2026-04-24 02:16 | 0.08611 | 121.77026 | 28227 ft | 382 kts | 63° |
| 2026-04-24 02:16 | 0.09829 | 121.79378 | 27843 ft | 379 kts | 63° |
| 2026-04-24 02:16 | 0.11036 | 121.81708 | 27476 ft | 376 kts | 63° |
| 2026-04-24 02:17 | 0.12236 | 121.84026 | 27097 ft | 374 kts | 63° |
| 2026-04-24 02:17 | 0.13424 | 121.86321 | 26730 ft | 371 kts | 63° |
| 2026-04-24 02:17 | 0.14598 | 121.88587 | 26369 ft | 369 kts | 63° |
| 2026-04-24 02:17 | 0.15773 | 121.90857 | 25999 ft | 367 kts | 63° |
| 2026-04-24 02:18 | 0.16947 | 121.93123 | 25634 ft | 365 kts | 63° |
| 2026-04-24 02:18 | 0.18113 | 121.95376 | 25200 ft | 365 kts | 63° |
| 2026-04-24 02:18 | 0.19277 | 121.97623 | 24825 ft | 364 kts | 63° |
| 2026-04-24 02:18 | 0.20440 | 121.99870 | 24486 ft | 362 kts | 63° |
| 2026-04-24 02:19 | 0.21590 | 122.02091 | 24164 ft | 359 kts | 63° |
| 2026-04-24 02:19 | 0.22725 | 122.04283 | 23826 ft | 357 kts | 63° |
| 2026-04-24 02:19 | 0.23862 | 122.06478 | 23496 ft | 355 kts | 63° |
| 2026-04-24 02:19 | 0.24995 | 122.08667 | 23112 ft | 353 kts | 63° |
| 2026-04-24 02:20 | 0.26123 | 122.10844 | 22731 ft | 351 kts | 63° |
| 2026-04-24 02:20 | 0.27244 | 122.13009 | 22351 ft | 348 kts | 63° |
| 2026-04-24 02:20 | 0.28358 | 122.15160 | 21982 ft | 346 kts | 63° |
| 2026-04-24 02:20 | 0.29463 | 122.17295 | 21621 ft | 344 kts | 63° |
| 2026-04-24 02:21 | 0.30547 | 122.19388 | 21270 ft | 342 kts | 63° |
| 2026-04-24 02:21 | 0.31638 | 122.21497 | 20923 ft | 340 kts | 63° |
| 2026-04-24 02:21 | 0.32723 | 122.23593 | 20575 ft | 338 kts | 63° |
| 2026-04-24 02:21 | 0.33796 | 122.25665 | 20230 ft | 337 kts | 63° |
| 2026-04-24 02:22 | 0.34872 | 122.27744 | 19890 ft | 335 kts | 64° |
| 2026-04-24 02:22 | 0.35944 | 122.29814 | 19559 ft | 333 kts | 64° |
| 2026-04-24 02:22 | 0.37003 | 122.31861 | 19232 ft | 331 kts | 64° |
| 2026-04-24 02:22 | 0.38050 | 122.33882 | 18907 ft | 330 kts | 64° |
| 2026-04-24 02:23 | 0.39105 | 122.35920 | 18573 ft | 328 kts | 64° |
| 2026-04-24 02:23 | 0.40156 | 122.37950 | 18267 ft | 326 kts | 64° |
| 2026-04-24 02:23 | 0.41033 | 122.40022 | 17899 ft | 324 kts | 75° |
| 2026-04-24 02:23 | 0.41428 | 122.42224 | 17554 ft | 321 kts | 88° |
| 2026-04-24 02:24 | 0.41441 | 122.44422 | 17212 ft | 319 kts | 91° |
| 2026-04-24 02:24 | 0.41394 | 122.46636 | 16867 ft | 317 kts | 91° |
| 2026-04-24 02:24 | 0.41336 | 122.48831 | 16533 ft | 315 kts | 91° |
| 2026-04-24 02:24 | 0.41281 | 122.51014 | 16197 ft | 314 kts | 91° |
| 2026-04-24 02:25 | 0.41231 | 122.53192 | 15869 ft | 312 kts | 91° |
| 2026-04-24 02:25 | 0.41186 | 122.55359 | 15548 ft | 310 kts | 91° |
| 2026-04-24 02:25 | 0.41145 | 122.57508 | 15224 ft | 309 kts | 91° |
| 2026-04-24 02:25 | 0.41106 | 122.59651 | 14908 ft | 307 kts | 90° |
| 2026-04-24 02:26 | 0.41070 | 122.61756 | 14599 ft | 306 kts | 90° |
| 2026-04-24 02:26 | 0.41035 | 122.63871 | 14297 ft | 304 kts | 90° |
| 2026-04-24 02:26 | 0.40999 | 122.65978 | 13980 ft | 303 kts | 90° |
| 2026-04-24 02:26 | 0.40964 | 122.68078 | 13681 ft | 301 kts | 90° |
| 2026-04-24 02:27 | 0.40929 | 122.70165 | 13341 ft | 300 kts | 90° |
| 2026-04-24 02:27 | 0.40895 | 122.72246 | 13005 ft | 298 kts | 90° |
| 2026-04-24 02:27 | 0.40861 | 122.74313 | 12674 ft | 297 kts | 90° |
| 2026-04-24 02:27 | 0.40827 | 122.76375 | 12344 ft | 296 kts | 90° |
| 2026-04-24 02:28 | 0.40793 | 122.78424 | 12018 ft | 294 kts | 90° |
| 2026-04-24 02:28 | 0.40759 | 122.80468 | 11707 ft | 293 kts | 90° |
| 2026-04-24 02:28 | 0.40726 | 122.82462 | 11482 ft | 288 kts | 90° |
| 2026-04-24 02:28 | 0.40694 | 122.84441 | 11344 ft | 281 kts | 90° |
| 2026-04-24 02:29 | 0.40662 | 122.86382 | 11101 ft | 277 kts | 90° |
| 2026-04-24 02:29 | 0.40640 | 122.88312 | 10796 ft | 277 kts | 86° |
| 2026-04-24 02:29 | 0.41141 | 122.90162 | 10467 ft | 277 kts | 67° |
| 2026-04-24 02:29 | 0.41927 | 122.91911 | 10199 ft | 275 kts | 66° |
| 2026-04-24 02:30 | 0.42704 | 122.93638 | 9914 ft | 275 kts | 66° |
| 2026-04-24 02:30 | 0.43476 | 122.95384 | 9617 ft | 274 kts | 67° |
| 2026-04-24 02:30 | 0.44233 | 122.97126 | 9329 ft | 272 kts | 67° |
| 2026-04-24 02:30 | 0.44975 | 122.98857 | 9024 ft | 269 kts | 67° |
| 2026-04-24 02:31 | 0.45707 | 123.00574 | 8571 ft | 268 kts | 67° |
| 2026-04-24 02:31 | 0.46433 | 123.02284 | 8103 ft | 267 kts | 67° |
| 2026-04-24 02:31 | 0.47158 | 123.03991 | 7671 ft | 266 kts | 67° |
| 2026-04-24 02:31 | 0.47989 | 123.05626 | 7216 ft | 265 kts | 51° |
| 2026-04-24 02:32 | 0.49371 | 123.06836 | 6799 ft | 264 kts | 36° |
| 2026-04-24 02:32 | 0.50919 | 123.07820 | 6443 ft | 263 kts | 30° |
| 2026-04-24 02:32 | 0.52544 | 123.08652 | 6024 ft | 261 kts | 26° |
| 2026-04-24 02:32 | 0.54214 | 123.09375 | 5687 ft | 261 kts | 23° |
| 2026-04-24 02:33 | 0.55883 | 123.10014 | 5317 ft | 259 kts | 20° |
| 2026-04-24 02:33 | 0.57658 | 123.10243 | 4944 ft | 262 kts | 352° |
| 2026-04-24 02:33 | 0.59312 | 123.09539 | 4619 ft | 262 kts | 319° |
| 2026-04-24 02:33 | 0.60323 | 123.08020 | 4141 ft | 266 kts | 290° |
| 2026-04-24 02:34 | 0.60857 | 123.06256 | 3973 ft | 265 kts | 285° |
| 2026-04-24 02:34 | 0.61253 | 123.04496 | 3806 ft | 256 kts | 280° |
| 2026-04-24 02:34 | 0.61493 | 123.02718 | 3299 ft | 262 kts | 276° |
| 2026-04-24 02:34 | 0.61703 | 123.00916 | 2945 ft | 259 kts | 277° |
| 2026-04-24 02:35 | 0.61922 | 122.99152 | 2618 ft | 250 kts | 277° |
| 2026-04-24 02:35 | 0.62134 | 122.97479 | 2288 ft | 235 kts | 277° |
| 2026-04-24 02:35 | 0.62332 | 122.95924 | 1988 ft | 222 kts | 277° |
| 2026-04-24 02:35 | 0.62518 | 122.94452 | 1721 ft | 205 kts | 277° |
| 2026-04-24 02:36 | 0.62690 | 122.93082 | 1458 ft | 192 kts | 277° |
| 2026-04-24 02:36 | 0.62849 | 122.91819 | 1243 ft | 176 kts | 277° |
| 2026-04-24 02:36 | 0.62996 | 122.90659 | 1016 ft | 161 kts | 277° |
| 2026-04-24 02:36 | 0.63135 | 122.89559 | 822 ft | 160 kts | 277° |
| 2026-04-24 02:37 | 0.63274 | 122.88458 | 607 ft | 159 kts | 277° |
| 2026-04-24 02:37 | 0.63408 | 122.87392 | 384 ft | 156 kts | 277° |
| 2026-04-24 02:37 | 0.63540 | 122.86325 | 193 ft | 151 kts | 277° |
| 2026-04-24 02:37 | 0.63663 | 122.85324 | 90 ft | 131 kts | 277° |
| 2026-04-24 02:38 | 0.63745 | 122.84606 | 101 ft | 88 kts | 277° |
| 2026-04-24 02:38 | 0.63791 | 122.84330 | 111 ft | 8 kts | 321° |
| 2026-04-24 02:38 | 0.63845 | 122.84327 | 110 ft | 8 kts | 8° |
| 2026-04-24 02:38 | 0.63905 | 122.84336 | 108 ft | 9 kts | 8° |
| 2026-04-24 02:39 | 0.63944 | 122.84358 | 104 ft | 4 kts | 78° |
| 2026-04-24 02:39 | 0.63949 | 122.84386 | 104 ft | 4 kts | 83° |
| 2026-04-24 02:39 | 0.63944 | 122.84417 | 105 ft | 4 kts | 99° |
| 2026-04-24 02:39 | 0.63938 | 122.84451 | 107 ft | 6 kts | 99° |
| 2026-04-24 02:40 | 0.63932 | 122.84500 | 106 ft | 7 kts | 95° |
| 2026-04-24 02:40 | 0.63947 | 122.84518 | 102 ft | 3 kts | 11° |
| 2026-04-24 02:40 | 0.63972 | 122.84523 | 104 ft | 4 kts | 7° |
| 2026-04-24 02:40 | 0.64000 | 122.84526 | 105 ft | 4 kts | 7° |
| 2026-04-24 02:41 | 0.64019 | 122.84529 | 105 ft | 2 kts | 7° |
| 2026-04-24 02:41 | 0.64022 | 122.84529 | 105 ft | 0 kts | 7° |